Elmo, Utah
Current Conditions -  °F | °C
As of 3:53 PM on Tuesday 25 Nov 2014 (Local Time) from KPUC Reporting Station
Scattered Clouds Scattered Clouds  
Wind Chill: 33°   Ceiling: Unl
Heat Index: 38°   Visibility: 10mi
Dew Point: 10°   Wind: 7mph
Humidity: 32%   Direction: 120°ESE
Pressure: 30.26"   Gusts: NA
Location:  39.39°N, 110.82°W
Report Text: KPUC 252253Z AUTO 12006KT 10SM SCT048 03/M12 A3026 RMK AO2 SLP292 T00331122
Loading
Personal Weather Stations






























Interactive Weather Map New forecast layout! Learn more

10-Day Weather Forecast

Advertisements
Track Severe Weather on mobile